Station: Terrey Hills  

  Atmospheric Gas Attenuation - ITU Rec 676-11   ----------------- dB/100km -----------------
Date Time Temp RH % AH g/m3 Dew Point Wind Direction Speed kph Gust kph Barometer mB Rainfall Since 9am 24GHz 47GHz 76GHz 122GHz 134GHz 241GHz
08/05 12:30 17.9 43 6.56 5.2 15 26 1013.1 0 15.1 21.7 30.4 79.3 68.8 235.3
08/05 12:20 18.1 45 6.95 6 17 22 1013.1 0 15.9 22.2 31.7 82.8 73.2 250.7
08/05 12:10 17.7 44 6.64 5.3 11 17 1013.1 0 15.3 21.9 30.7 80.2 69.9 239.2
08/05 12:00 17.5 45 6.71 5.4 15 26 1013.1 0 15.4 22.0 31.0 81.1 70.9 242.6
08/05 11:50 17.1 47 6.84 5.7 11 17 1013.1 0 15.7 22.3 31.7 82.7 72.8 249.2
08/05 11:40 17.3 47 6.92 5.9 11 20 1013.1 0 15.9 22.4 31.9 83.3 73.6 251.9
08/05 11:30 16.4 47 6.56 5.1 17 30 1013.1 0 15.1 22.1 30.9 80.8 70.1 239.7
08/05 11:20 16.2 48 6.62 5.2 17 22 1013.1 0 15.3 22.2 31.2 81.5 71.0 242.8
08/05 11:10 16.1 48 6.58 5.1 17 24 1013.1 0 15.2 22.2 31.1 81.3 70.6 241.4
08/05 11:00 16 49 6.68 5.3 15 24 1013.1 0 15.4 22.3 31.5 82.3 71.9 245.9
08/05 10:50 15.6 48 6.38 4.6 15 22 1013.1 0 14.8 22.0 30.6 79.8 68.7 234.6
08/05 10:40 15.5 48 6.34 4.5 13 22 1013.1 0 14.7 22.0 30.5 79.5 68.3 233.2
08/05 10:30 15.4 51 6.7 5.3 13 30 1013.1 0 15.5 22.5 31.8 83.1 72.7 248.6
08/05 10:20 15.2 51 6.62 5.1 15 26 1013.1 0 15.3 22.5 31.6 82.6 71.9 245.8
08/05 10:10 14.9 51 6.5 4.8 13 17 1013.1 0 15.1 22.4 31.3 81.7 70.7 241.7
08/05 10:00 14.5 51 6.34 4.5 11 19 1013.1 0 14.8 22.2 30.8 80.5 69.2 236.1
08/05 09:50 14.1 52 6.31 4.4 13 19 1013.1 0 14.7 22.3 30.9 80.6 69.2 236.0
08/05 09:40 13.7 53 6.28 4.3 11 17 1013.1 0 14.7 22.3 30.9 80.8 69.1 235.9
08/05 09:30 13.3 54 6.24 4.2 17 26 1013.1 0 14.6 22.4 30.9 80.8 69.0 235.4
08/05 09:20 13 53 6.01 3.6 17 24 1013.1 0 14.1 22.1 30.2 78.8 66.5 226.5
08/05 09:10 12.7 55 6.12 3.9 20 26 1013.1 0 14.4 22.3 30.7 80.2 68.1 232.0
08/05 09:00 12.4 56 6.12 3.9 15 24 1013.1 0 14.4 22.4 30.8 80.5 68.3 232.9
08/05 08:50 12 57 6.08 3.7 15 19 1013.1 0 14.3 22.4 30.8 80.5 68.2 232.3
08/05 08:40 11.7 56 5.86 3.4 13 17 1013.1 0 13.8 22.2 30.1 78.6 65.7 223.7
08/05 08:30 11.4 58 5.95 3.4 13 24 1013.1 0 14.0 22.4 30.6 79.8 67.1 228.4
08/05 08:20 11.4 58 5.95 3.6 13 20 1013.1 0 14.0 22.4 30.6 79.8 67.1 228.4
08/05 08:10 10.9 58 5.77 2.9 13 19 1013.1 0 13.7 22.2 30.1 78.5 65.3 222.1
08/05 08:00 10.4 60 5.78 3 15 24 1013.1 0 13.7 22.4 30.3 79.1 65.8 223.9
08/05 07:50 9.8 61 5.66 2.6 13 22 1013.1 0 13.5 22.3 30.1 78.5 64.8 220.3
08/05 07:40 9.3 63 5.66 2.6 13 22 1013.1 0 13.5 22.5 30.3 79.0 65.3 221.7
08/05 07:30 8.6 64 5.5 2.2 11 19 1013.1 0 13.2 22.4 29.9 78.0 63.8 216.6
08/05 07:20 8.2 65 5.45 2 11 17 1013.1 0 13.1 22.4 29.9 77.9 63.5 215.5
08/05 07:10 7.7 66 5.35 1.7 13 17 1013.1 0 12.9 22.4 29.7 77.4 62.7 212.4
08/05 07:00 7.3 67 5.3 1.6 13 19 1013.1 0 12.8 22.4 29.6 77.3 62.3 211.2
08/05 06:50 7 68 5.27 1.5 15 20 1013.1 0 12.7 22.4 29.6 77.3 62.2 210.7
08/05 06:40 7.2 67 5.26 1.5 13 17 1013.1 0 12.7 22.4 29.5 77.0 61.9 209.7
08/05 06:30 7.2 67 5.26 1.5 13 19 1013.1 0 12.7 22.4 29.5 77.0 61.9 209.7
08/05 06:20 7.5 65 5.21 1.3 15 20 1013.1 0 12.6 22.2 29.2 76.2 61.1 206.7
08/05 06:10 7.4 66 5.25 1.4 15 17 1013.1 0 12.7 22.3 29.4 76.7 61.6 208.7
08/05 06:00 7.3 66 5.22 1.4 13 19 1013.1 0 12.6 22.3 29.3 76.5 61.3 207.7
08/05 05:50 7.4 65 5.17 1.2 11 15 1013.1 0 12.5 22.2 29.1 75.8 60.6 205.2
08/05 05:40 7.4 65 5.17 1.2 13 19 1013.1 0 12.5 22.2 29.1 75.8 60.6 205.2
08/05 05:30 7.4 65 5.17 1.3 13 19 1013.1 0 12.5 22.2 29.1 75.8 60.6 205.2
08/05 05:20 7.2 65 5.1 1.2 13 19 1013.1 0 12.4 22.1 28.9 75.3 59.9 202.6
08/05 05:10 6.7 67 5.09 1 13 17 1013.1 0 12.4 22.2 29.1 75.7 60.2 203.5
08/05 05:00 6.7 66 5.02 0.8 11 17 1013.1 0 12.2 22.1 28.8 75.0 59.3 200.4
08/05 04:50 6.7 66 5.02 0.8 13 15 1013.1 0 12.2 22.1 28.8 75.0 59.3 200.4
08/05 04:40 7 64 4.96 0.6 13 17 1013.1 0 12.1 22.0 28.5 74.1 58.3 197.0
08/05 04:30 7.1 65 5.07 1 13 20 1013.1 0 12.3 22.1 28.8 75.1 59.6 201.6
08/05 04:20 7.1 64 4.99 0.7 13 17 1013.1 0 12.1 22.0 28.5 74.3 58.6 198.0
08/05 04:10 6.8 66 5.05 0.9 13 15 1013.1 0 12.3 22.1 28.9 75.2 59.6 201.4
08/05 04:00 6.7 65 4.94 0.6 13 19 1013.1 0 12.0 22.0 28.5 74.2 58.3 196.8
08/05 03:50 6.7 66 5.02 0.8 13 17 1013.1 0 12.2 22.1 28.8 75.0 59.3 200.4
08/05 03:40 6.7 66 5.02 0.8 13 15 1013.1 0 12.2 22.1 28.8 75.0 59.3 200.4
08/05 03:30 6.6 66 4.99 0.7 11 17 1013.1 0 12.2 22.1 28.7 74.8 59.0 199.3
08/05 03:20 6.6 66 4.99 0.7 11 13 1013.1 0 12.2 22.1 28.7 74.8 59.0 199.3
08/05 03:10 6.7 66 5.02 0.8 11 15 1013.1 0 12.2 22.1 28.8 75.0 59.3 200.4
08/05 03:00 6.7 66 5.02 0.8 11 19 1013.1 0 12.2 22.1 28.8 75.0 59.3 200.4
08/05 02:50 6.7 65 4.94 0.6 11 13 1013.1 0 12.0 22.0 28.5 74.2 58.3 196.8
08/05 02:40 6.7 65 4.94 0.6 9 15 1013.1 0 12.0 22.0 28.5 74.2 58.3 196.8
08/05 02:30 6.8 64 4.9 0.5 11 15 1013.1 0 12.0 21.9 28.3 73.7 57.7 194.8
08/05 02:20 6.8 63 4.82 0.2 9 15 1013.1 0 11.8 21.8 28.0 72.9 56.7 191.3
08/05 02:10 6.8 63 4.82 0.2 9 9 1013.1 0 11.8 21.8 28.0 72.9 56.7 191.3
08/05 02:00 6.9 62 4.78 0.1 7 11 1013.1 0 11.7 21.7 27.8 72.4 56.1 189.3
08/05 01:50 7.1 60 4.68 -0.2 7 9 1013.1 0 11.5 21.5 27.4 71.2 54.7 184.5
08/05 01:40 7 61 4.73 0 9 11 1013.1 0 11.6 21.6 27.6 71.8 55.4 186.9
08/05 01:30 7 61 4.73 0 9 11 1013.1 0 11.6 21.6 27.6 71.8 55.4 186.9
08/05 01:20 7 60 4.65 -0.3 7 11 1013.1 0 11.4 21.5 27.3 71.0 54.4 183.4
08/05 01:10 7.1 60 4.68 -0.2 7 9 1013.1 0 11.5 21.5 27.4 71.2 54.7 184.5
08/05 01:00 7.2 60 4.71 0 9 15 1013.1 0 11.5 21.5 27.5 71.4 55.0 185.6
08/05 00:50 7.1 60 4.68 -0.2 9 11 1013.1 0 11.5 21.5 27.4 71.2 54.7 184.5
08/05 00:40 7.4 59 4.69 -0.1 11 13 1013.1 0 11.5 21.5 27.3 71.0 54.7 184.2
08/05 00:20 7.2 59 4.63 -0.3 7 9 1013.1 0 11.4 21.4 27.2 70.6 54.1 182.1
08/05 00:10 7.4 57 4.54 -0.6 7 11 1013.1 0 11.2 21.2 26.8 69.5 52.8 177.8
08/05 00:00 7.8 56 4.57 -0.4 7 13 1013.1 0 11.2 21.2 26.7 69.5 52.9 178.2
07/05 23:50 8.2 54 4.52 -0.6 9 11 1013.1 0 11.1 21.0 26.4 68.6 52.0 175.2
07/05 23:40 8.1 54 4.5 -0.7 7 11 1013.1 0 11.1 21.0 26.4 68.5 51.9 174.5
07/05 23:30 8 55 4.55 -0.5 9 19 1013.1 0 11.2 21.1 26.6 69.1 52.5 176.9
07/05 23:20 7.9 55 4.52 -0.6 9 11 1013.1 0 11.1 21.1 26.5 68.9 52.2 175.8
07/05 23:10 8.2 53 4.44 -0.8 11 13 1013.1 0 10.9 20.9 26.1 67.9 51.1 171.8
07/05 23:00 8.3 52 4.38 -1 7 15 1013.1 0 10.8 20.8 25.9 67.2 50.3 169.0
07/05 22:50 8.4 52 4.41 -0.9 9 11 1013.1 0 10.9 20.8 26.0 67.4 50.6 170.1
07/05 22:40 8.7 50 4.33 -1.2 9 15 1013.1 0 10.7 20.6 25.6 66.4 49.5 166.1
07/05 22:30 8.5 51 4.36 -1 9 17 1013.1 0 10.7 20.7 25.7 66.8 49.9 167.8
07/05 22:20 8.8 50 4.35 -1.1 9 13 1013.1 0 10.7 20.6 25.6 66.5 49.6 166.7
07/05 22:10 8.9 49 4.29 -1.3 9 13 1013.1 0 10.6 20.5 25.4 65.8 48.9 164.0
07/05 22:00 9 49 4.32 -1.1 13 24 1013.1 0 10.6 20.5 25.4 66.0 49.1 165.1
07/05 21:50 9.3 48 4.32 -1.2 15 22 1013.1 0 10.6 20.5 25.4 65.8 49.0 164.5
07/05 21:40 9.5 48 4.37 -1 15 24 1013.1 0 10.7 20.5 25.5 66.1 49.4 166.1
07/05 21:30 9.4 48 4.34 -1 17 30 1013.1 0 10.7 20.5 25.4 65.9 49.1 165.1
07/05 21:20 9.6 47 4.31 -1.2 13 19 1013.1 0 10.6 20.4 25.2 65.5 48.7 163.5
07/05 21:10 9.5 47 4.28 -1.3 15 19 1013.1 0 10.5 20.4 25.1 65.2 48.4 162.4
07/05 21:00 9.6 47 4.31 -1.1 15 28 1013.1 0 10.6 20.4 25.2 65.5 48.7 163.5
07/05 20:50 9.6 46 4.22 -1.5 13 20 1013.1 0 10.4 20.3 24.9 64.6 47.6 159.7
07/05 20:40 9.6 46 4.22 -1.5 11 17 1013.1 0 10.4 20.3 24.9 64.6 47.6 159.7
07/05 20:30 9.8 45 4.18 -1.6 13 28 1013.1 0 10.3 20.2 24.7 64.1 47.0 157.7
07/05 20:20 9.9 45 4.2 -1.5 11 15 1013.1 0 10.4 20.2 24.7 64.2 47.2 158.3
07/05 20:10 10 44 4.14 -1.7 9 15 1013.1 0 10.2 20.1 24.5 63.5 46.4 155.7
07/05 20:00 10.2 44 4.19 -1.5 13 24 1013.1 0 10.3 20.1 24.6 63.8 46.9 157.3
07/05 19:50 10.3 44 4.21 -1.4 15 24 1013.1 0 10.4 20.1 24.7 63.9 47.1 158.0

Last Refresh: 08-May-2026 12:09:36

Bureau of Meteorology